Shilka, Russia
Current Conditions -  °F | °C
As of 7:00 PM on Friday 24 Oct 2014 (Local Time) from UIAA Reporting Station
Broken Clouds Broken Clouds  
Wind Chill: 32°   Ceiling: 10000
Heat Index: 32°   Visibility: 6mi
Dew Point: 25°   Wind: 0mph
Humidity: 75%   Direction: NA
Pressure: 29.68"   Gusts: NA
Location:  51.85°N, 116.03°E
Report Text: UIAA 241000Z 00000MPS 9999 SCT050CB BKN100 00/M04 Q1005 NOSIGRMK QFE696 29CLRD70
Loading
Personal Weather Stations






























Interactive Weather Map
Tropical Storm Tracking
New forecast layout! Learn more

10-Day Weather Forecast

Advertisements
Track Severe Weather on mobile